createdAt,value
2017-07-27T07:41:56.397Z,4608
2017-07-27T07:42:57.800Z,3724
2017-07-27T07:44:19.760Z,3720
2017-07-27T07:45:21.165Z,5048
2017-07-27T07:46:22.571Z,5828
2017-07-27T07:47:24.195Z,5440
2017-07-27T07:48:25.605Z,5200
2017-07-27T07:49:27.078Z,4300
2017-07-27T07:50:28.487Z,4312
2017-07-27T07:51:29.897Z,4532
2017-07-27T07:52:31.397Z,5304
2017-07-27T07:53:32.804Z,5748
2017-07-27T07:54:34.215Z,5920
2017-07-27T07:55:35.721Z,4932
2017-07-27T07:56:37.153Z,4852
2017-07-27T07:57:38.601Z,4468
2017-07-27T07:58:40.015Z,3312
2017-07-27T07:59:41.479Z,3548
2017-07-27T08:00:42.887Z,5408
2017-07-27T08:01:44.364Z,6040
2017-07-27T08:02:45.773Z,6424
2017-07-27T08:03:47.243Z,4500
2017-07-27T08:04:48.665Z,5496
2017-07-27T08:05:50.122Z,6060
2017-07-27T08:06:51.530Z,6728
2017-07-27T08:07:53.014Z,7436
2017-07-27T08:08:54.418Z,6880
2017-07-27T08:09:55.886Z,5908
2017-07-27T08:10:57.296Z,4892
2017-07-27T08:11:58.767Z,4652
2017-07-27T08:13:00.179Z,5152
2017-07-27T08:14:01.651Z,6520
2017-07-27T08:15:03.059Z,7356
2017-07-27T08:16:04.531Z,6972
2017-07-27T08:17:05.940Z,6668
2017-07-27T08:18:07.417Z,6252
2017-07-27T08:19:08.829Z,5872
2017-07-27T08:20:10.292Z,6628
2017-07-27T08:21:11.700Z,6804
2017-07-27T08:22:13.110Z,6624
2017-07-27T08:23:14.627Z,6996
2017-07-27T08:24:16.057Z,6688
2017-07-27T08:25:17.468Z,6876
2017-07-27T08:26:18.938Z,6692
2017-07-27T08:27:20.385Z,11472
2017-07-27T08:28:21.813Z,9152
2017-07-27T08:29:23.200Z,12380
2017-07-27T08:30:24.608Z,11000
2017-07-27T08:31:26.140Z,10496
2017-07-27T08:32:27.554Z,9468
2017-07-27T08:33:29.021Z,8988
2017-07-27T08:34:30.432Z,9304
2017-07-27T08:35:31.902Z,10280
2017-07-27T08:36:33.313Z,10800
2017-07-27T08:37:34.788Z,9804
2017-07-27T08:38:36.194Z,10696
2017-07-27T08:39:37.662Z,9084
2017-07-27T08:40:39.075Z,8120
2017-07-27T08:41:40.542Z,6948
2017-07-27T08:42:41.948Z,7528
2017-07-27T08:43:43.423Z,9048
2017-07-27T08:44:44.839Z,7584
2017-07-27T08:45:46.305Z,9368
2017-07-27T08:46:47.717Z,7156
2017-07-27T08:47:49.128Z,5848
2017-07-27T08:48:50.627Z,9024
2017-07-27T08:49:52.036Z,11120
2017-07-27T08:50:53.447Z,30144
2017-07-27T08:51:54.947Z,17184
2017-07-27T08:52:56.367Z,11168
2017-07-27T08:53:57.776Z,10620
2017-07-27T08:54:59.269Z,7772
2017-07-27T08:56:00.682Z,5208
2017-07-27T08:57:02.092Z,4456
2017-07-27T08:58:03.591Z,4896
2017-07-27T08:59:05.005Z,4096
2017-07-27T09:00:06.413Z,4408
2017-07-27T09:01:07.912Z,5484
2017-07-27T09:02:09.329Z,5896
2017-07-27T09:03:10.794Z,7848
2017-07-27T09:04:12.201Z,11444
2017-07-27T09:05:13.675Z,14804
2017-07-27T09:06:15.086Z,14484
2017-07-27T09:07:16.499Z,13244
2017-07-27T09:08:18.000Z,16544
2017-07-27T09:09:19.414Z,16928
2017-07-27T09:10:20.830Z,23808
2017-07-27T09:11:22.320Z,38816
2017-07-27T09:12:23.730Z,61056
2017-07-27T09:13:25.142Z,19008
2017-07-27T09:14:26.642Z,11064
2017-07-27T09:15:28.054Z,84864
2017-07-27T09:16:29.470Z,32864
2017-07-27T09:17:30.960Z,7472
2017-07-27T09:18:32.380Z,20096
2017-07-27T09:19:33.844Z,21024
2017-07-27T09:20:35.255Z,85216
2017-07-27T09:21:36.724Z,30112
2017-07-27T09:22:38.138Z,32224
2017-07-27T09:23:39.552Z,12312
2017-07-27T09:24:41.048Z,15016
2017-07-27T09:25:42.459Z,6964
2017-07-27T09:26:43.873Z,20832
2017-07-27T09:27:45.370Z,13832
2017-07-27T09:28:46.786Z,15000
2017-07-27T09:29:48.250Z,18240
2017-07-27T09:30:49.665Z,7424
2017-07-27T09:31:51.127Z,8272
2017-07-27T09:32:52.537Z,3372
2017-07-27T09:33:53.980Z,81312
2017-07-27T09:34:55.491Z,102656
2017-07-27T09:35:56.907Z,107872
2017-07-27T09:36:58.325Z,87616
2017-07-27T09:37:59.813Z,73216
2017-07-27T09:39:01.226Z,13880
2017-07-27T09:40:02.691Z,58112
2017-07-27T09:41:04.114Z,72864
2017-07-27T09:42:05.790Z,40256
2017-07-27T09:43:07.204Z,41408
2017-07-27T09:44:08.877Z,42400
2017-07-27T09:45:10.291Z,27360
2017-07-27T09:46:11.913Z,15872
2017-07-27T09:47:13.325Z,26656
2017-07-27T09:48:14.789Z,8892
2017-07-27T09:49:16.203Z,12740
2017-07-27T09:50:17.673Z,20672
2017-07-27T09:51:19.089Z,13244
2017-07-27T09:52:20.555Z,14648
2017-07-27T09:53:21.970Z,8504
2017-07-27T09:54:23.382Z,7372
2017-07-27T09:55:24.901Z,9088
2017-07-27T09:56:26.293Z,7748
2017-07-27T09:57:27.706Z,6060
2017-07-27T09:58:29.134Z,5660
2017-07-27T09:59:30.543Z,9928
2017-07-27T10:00:32.079Z,16512
2017-07-27T10:01:33.490Z,8040
2017-07-27T10:02:34.962Z,16256
2017-07-27T10:03:36.373Z,6012
2017-07-27T10:04:37.839Z,3716
2017-07-27T10:05:39.253Z,3296
2017-07-27T10:06:40.726Z,3456
2017-07-27T10:07:42.139Z,5808
2017-07-27T10:08:43.603Z,18112
2017-07-27T10:09:45.015Z,20512
2017-07-27T10:10:46.486Z,14172
2017-07-27T10:11:47.898Z,30048
2017-07-27T10:12:49.312Z,28096
2017-07-27T10:13:50.807Z,9264
2017-07-27T10:14:52.224Z,6072
2017-07-27T10:15:53.634Z,5476
2017-07-27T10:16:55.151Z,6540
2017-07-27T10:17:56.558Z,7944
2017-07-27T10:18:58.034Z,9660
2017-07-27T10:19:59.477Z,6228
2017-07-27T10:21:01.098Z,10252
2017-07-27T10:22:02.516Z,6320
2017-07-27T10:23:04.005Z,7752
2017-07-27T10:24:05.415Z,6612
2017-07-27T10:25:06.860Z,6260
2017-07-27T10:26:08.270Z,6220
2017-07-27T10:27:09.761Z,4960
2017-07-27T10:28:11.178Z,6304
2017-07-27T10:29:12.590Z,8536
2017-07-27T10:30:14.088Z,9896
2017-07-27T10:31:15.499Z,6160
2017-07-27T10:32:16.954Z,4576
2017-07-27T10:33:18.382Z,5680
2017-07-27T10:34:19.793Z,7900
2017-07-27T10:35:21.209Z,10980
2017-07-27T10:36:22.704Z,12664
2017-07-27T10:37:24.115Z,8220
2017-07-27T10:38:25.528Z,4892
2017-07-27T10:39:27.019Z,6788
2017-07-27T10:40:28.435Z,8928
2017-07-27T10:41:29.896Z,6900
2017-07-27T10:42:31.347Z,10480
2017-07-27T10:43:32.760Z,13192
2017-07-27T10:44:34.170Z,10760
2017-07-27T10:45:35.669Z,13220
2017-07-27T10:46:37.083Z,11928
2017-07-27T10:47:38.493Z,10056
2017-07-27T10:48:40.023Z,13040
2017-07-27T10:49:41.440Z,13980
2017-07-27T10:50:42.857Z,14496
2017-07-27T10:51:44.312Z,13972
2017-07-27T10:52:45.719Z,13696
2017-07-27T10:53:47.134Z,9808
2017-07-27T10:54:48.632Z,10720
2017-07-27T10:55:50.047Z,12688
2017-07-27T10:56:51.513Z,8748
2017-07-27T10:57:52.925Z,12512
2017-07-27T10:58:54.339Z,10000
2017-07-27T10:59:55.834Z,11380
2017-07-27T11:00:57.276Z,9772
2017-07-27T11:01:58.729Z,11496
2017-07-27T11:03:00.363Z,18304
2017-07-27T11:04:01.782Z,24128
2017-07-27T11:05:03.192Z,36064
2017-07-27T11:06:04.686Z,49696
2017-07-27T11:07:06.097Z,59616
2017-07-27T11:08:07.512Z,61696
2017-07-27T11:09:09.013Z,47328
2017-07-27T11:10:10.431Z,36928
2017-07-27T11:11:11.848Z,24448
2017-07-27T11:12:13.328Z,16992
2017-07-27T11:13:14.787Z,17248
2017-07-27T11:14:16.205Z,16896
2017-07-27T11:15:17.649Z,20704
2017-07-27T11:16:19.065Z,9196
2017-07-27T11:17:20.478Z,8044
2017-07-27T11:18:21.971Z,11964
2017-07-27T11:19:23.387Z,9160
2017-07-27T11:20:24.850Z,9012
2017-07-27T11:21:26.278Z,9112
2017-07-27T11:22:28.116Z,9400
2017-07-27T11:23:29.520Z,10960
2017-07-27T11:24:31.010Z,11900
2017-07-27T11:25:32.465Z,12980
2017-07-27T11:26:33.885Z,7956
2017-07-27T11:27:35.298Z,12292
2017-07-27T11:28:36.786Z,15744
2017-07-27T11:29:38.198Z,9552
2017-07-27T11:30:39.613Z,18176
2017-07-27T11:31:41.024Z,22560
2017-07-27T11:32:42.444Z,22912
2017-07-27T11:33:43.988Z,20032
2017-07-27T11:34:45.405Z,22976
2017-07-27T11:35:46.887Z,12536
2017-07-27T11:36:48.361Z,25536
2017-07-27T11:37:49.958Z,12088
2017-07-27T11:38:51.371Z,8964
2017-07-27T11:39:52.779Z,8704
2017-07-27T11:40:54.277Z,8412
2017-07-27T11:41:55.690Z,10012
2017-07-27T11:42:57.103Z,10120
2017-07-27T11:43:58.598Z,18304
2017-07-27T11:45:00.017Z,18080
2017-07-27T11:46:01.478Z,8200
2017-07-27T11:47:02.896Z,16160
2017-07-27T11:48:04.364Z,17824
2017-07-27T11:49:05.780Z,18368
2017-07-27T11:50:07.193Z,19328
2017-07-27T11:51:08.684Z,16128
2017-07-27T11:52:10.102Z,15360
2017-07-27T11:53:11.517Z,15264
2017-07-27T11:54:13.051Z,14764
2017-07-27T11:55:14.469Z,15200
2017-07-27T11:56:15.896Z,16000
2017-07-27T11:57:17.325Z,16192
2017-07-27T11:58:18.742Z,15872
2017-07-27T11:59:20.169Z,13616
2017-07-27T12:00:21.860Z,12132
2017-07-27T12:01:23.278Z,11216
2017-07-27T12:02:24.703Z,11812
2017-07-27T12:03:26.171Z,11488
2017-07-27T12:04:27.588Z,12084
2017-07-27T12:05:29.017Z,13188
2017-07-27T12:06:30.432Z,11952
2017-07-27T12:07:31.850Z,14976
2017-07-27T12:08:33.376Z,16800
2017-07-27T12:09:34.794Z,13612
2017-07-27T12:10:36.255Z,12204
2017-07-27T12:11:37.675Z,11992
2017-07-27T12:12:39.141Z,19168
2017-07-27T12:13:40.556Z,11944
2017-07-27T12:14:42.018Z,13580
2017-07-27T12:15:43.436Z,10752
2017-07-27T12:16:44.898Z,8836
2017-07-27T12:17:46.314Z,8988
2017-07-27T12:18:47.731Z,14016
2017-07-27T12:19:49.222Z,8812
2017-07-27T12:20:50.711Z,6120
2017-07-27T12:21:52.151Z,6444
2017-07-27T12:22:53.756Z,5216
2017-07-27T12:23:55.197Z,4696
